Time;durP1;ratioP1;P1;durP2;ratioP2;P2;SDS_P1;SDS_P2;PMS_P1;PMS_P2;Temp;Humidity;BMP_temperature;BMP_pressure;BME280_temperature;BME280_humidity;BME280_pressure;Samples;Min_cycle;Max_cycle;Signal;HPM_P1;HPM_P2
2022/07/04 00:02:04;;;;;;;4.43;2.22;;;19.00;68.30;;;;;;2372597;56;21038;-73
2022/07/04 00:04:31;;;;;;;4.32;2.30;;;19.00;68.20;;;;;;2627361;52;21026;-73
2022/07/04 00:06:59;;;;;;;3.47;2.35;;;19.00;68.20;;;;;;2373730;56;21134;-73
2022/07/04 00:09:26;;;;;;;5.62;2.33;;;18.90;68.30;;;;;;2374235;56;21159;-73
2022/07/04 00:11:54;;;;;;;5.75;2.47;;;18.90;68.40;;;;;;2627503;52;21043;-73
2022/07/04 00:14:21;;;;;;;5.57;2.72;;;18.90;68.60;;;;;;2373882;56;21054;-73
2022/07/04 00:16:49;;;;;;;5.40;2.20;;;18.80;68.70;;;;;;2373745;56;21043;-74
2022/07/04 00:19:16;;;;;;;5.80;2.53;;;18.80;68.90;;;;;;2372819;56;21031;-73
2022/07/04 00:21:44;;;;;;;4.53;2.47;;;18.80;69.80;;;;;;2374368;56;21618;-74
2022/07/04 00:24:11;;;;;;;5.65;2.80;;;18.80;69.00;;;;;;2627500;52;21597;-72
2022/07/04 00:26:39;;;;;;;5.28;3.12;;;18.80;69.10;;;;;;2627146;52;21075;-73
2022/07/04 00:29:06;;;;;;;5.62;2.97;;;18.70;69.20;;;;;;2627074;52;21050;-73
2022/07/04 00:31:34;;;;;;;4.68;3.03;;;18.70;69.30;;;;;;2373950;56;21636;-73
2022/07/04 00:34:01;;;;;;;6.62;3.30;;;18.70;69.30;;;;;;2374184;56;21543;-73
2022/07/04 00:36:29;;;;;;;4.97;3.37;;;18.70;69.50;;;;;;2372023;56;21054;-74
2022/07/04 00:38:56;;;;;;;5.68;3.37;;;18.70;69.50;;;;;;2373927;56;21584;-73
2022/07/04 00:41:24;;;;;;;5.72;3.20;;;18.70;69.60;;;;;;2373799;56;21093;-73
2022/07/04 00:44:02;;;;;;;7.32;3.30;;;18.60;69.60;;;;;;2373256;56;21039;-73
2022/07/04 00:46:30;;;;;;;6.07;3.45;;;18.60;69.70;;;;;;2373394;56;21553;-72
2022/07/04 00:48:58;;;;;;;8.20;3.00;;;18.60;69.60;;;;;;2374059;56;21581;-72
2022/07/04 00:54:02;;;;;;;6.55;3.85;;;18.60;69.60;;;;;;2356110;57;22121;-72
2022/07/04 00:56:30;;;;;;;6.68;3.80;;;18.60;69.70;;;;;;2347066;57;21532;-72
2022/07/04 00:58:58;;;;;;;6.65;3.25;;;18.50;69.90;;;;;;2348935;56;21077;-72
2022/07/04 01:01:27;;;;;;;6.97;3.37;;;18.50;70.10;;;;;;2375327;56;21062;-72
2022/07/04 01:03:55;;;;;;;7.97;3.50;;;18.50;70.50;;;;;;2374958;56;21122;-73
2022/07/04 01:06:23;;;;;;;7.03;3.65;;;18.40;70.80;;;;;;2374800;56;21612;-73
2022/07/04 01:08:51;;;;;;;6.45;3.60;;;18.40;71.10;;;;;;2374472;56;21055;-73
2022/07/04 01:11:18;;;;;;;7.75;3.70;;;18.40;71.30;;;;;;2375060;56;21131;-73
2022/07/04 01:13:46;;;;;;;8.73;4.65;;;18.40;71.30;;;;;;2374774;56;21122;-73
2022/07/04 01:16:14;;;;;;;7.45;3.55;;;18.40;71.40;;;;;;2374667;56;21051;-73
2022/07/04 01:18:41;;;;;;;9.70;4.60;;;18.30;71.40;;;;;;2375113;56;21055;-73
2022/07/04 01:21:09;;;;;;;9.13;4.50;;;18.30;71.70;;;;;;2374938;56;21091;-73
2022/07/04 01:23:39;;;;;;;12.30;4.45;;;18.30;71.80;;;;;;2374996;56;21038;-73
2022/07/04 01:26:07;;;;;;;10.73;4.82;;;18.30;72.10;;;;;;2374481;56;21047;-73
2022/07/04 01:28:35;;;;;;;5.32;3.75;;;18.30;71.90;;;;;;2374371;56;21023;-73
2022/07/04 01:31:03;;;;;;;8.10;3.95;;;18.20;71.80;;;;;;2375125;56;21562;-73
2022/07/04 01:33:30;;;;;;;9.02;4.25;;;18.30;72.00;;;;;;2374316;56;21605;-72
2022/07/04 01:35:58;;;;;;;6.00;4.37;;;18.20;71.90;;;;;;2372230;56;21376;-72
2022/07/04 01:38:26;;;;;;;9.00;4.40;;;18.20;72.00;;;;;;2375121;56;21027;-73
2022/07/04 01:40:53;;;;;;;8.57;4.35;;;18.20;71.90;;;;;;2375210;56;21108;-73
2022/07/04 01:43:20;;;;;;;11.95;4.28;;;18.20;72.00;;;;;;2373999;56;21046;-73
2022/07/04 01:45:48;;;;;;;7.85;4.43;;;18.20;72.00;;;;;;2374119;56;21564;-73
2022/07/04 01:48:16;;;;;;;7.85;4.28;;;18.20;72.00;;;;;;2375208;56;21079;-73
2022/07/04 01:50:43;;;;;;;8.52;5.25;;;18.20;72.00;;;;;;2375170;56;21090;-73
2022/07/04 01:53:11;;;;;;;7.72;4.75;;;18.20;72.10;;;;;;2373877;56;21059;-73
2022/07/04 01:55:38;;;;;;;7.22;4.75;;;18.20;72.20;;;;;;2374905;56;21070;-74
2022/07/04 01:58:06;;;;;;;9.00;5.47;;;18.20;72.20;;;;;;2373546;56;21346;-73
2022/07/04 02:03:19;;;;;;;7.65;5.28;;;18.20;72.10;;;;;;2375063;56;21038;-75
2022/07/04 02:05:46;;;;;;;9.98;6.00;;;18.20;72.00;;;;;;2373751;56;21099;-73
2022/07/04 02:08:14;;;;;;;12.55;5.70;;;18.20;72.00;;;;;;2627747;52;21039;-72
2022/07/04 02:10:41;;;;;;;10.55;5.47;;;18.10;72.30;;;;;;2373943;56;21585;-72
2022/07/04 02:13:09;;;;;;;7.85;6.00;;;18.10;72.40;;;;;;2372738;56;21055;-73
2022/07/04 02:15:38;;;;;;;12.77;6.45;;;18.10;72.40;;;;;;2372378;56;21062;-73
2022/07/04 02:18:07;;;;;;;11.63;6.25;;;18.10;72.50;;;;;;2373139;56;21526;-73
2022/07/04 02:20:36;;;;;;;6.93;5.60;;;18.00;72.50;;;;;;2626224;52;21050;-73
2022/07/04 02:23:05;;;;;;;12.25;7.05;;;18.00;72.40;;;;;;2374225;56;21566;-73
2022/07/04 02:25:33;;;;;;;8.35;6.03;;;18.00;72.50;;;;;;2626947;52;21632;-74
2022/07/04 02:28:00;;;;;;;7.78;5.82;;;18.00;72.60;;;;;;2374087;56;21098;-73
2022/07/04 02:30:28;;;;;;;9.77;6.95;;;18.00;72.60;;;;;;2374030;56;21065;-73
2022/07/04 02:32:55;;;;;;;11.73;6.80;;;18.00;72.80;;;;;;2373972;56;21117;-73
2022/07/04 02:35:23;;;;;;;11.57;6.82;;;17.90;72.90;;;;;;2625947;52;21099;-74
2022/07/04 02:37:50;;;;;;;12.45;6.75;;;17.90;72.90;;;;;;2373787;56;21043;-74
2022/07/04 02:40:18;;;;;;;8.95;6.93;;;17.90;73.10;;;;;;2374118;56;21039;-73
2022/07/04 02:42:45;;;;;;;12.80;7.53;;;17.90;73.00;;;;;;2374073;56;21067;-75
2022/07/04 02:45:13;;;;;;;9.88;6.50;;;17.90;72.90;;;;;;2373876;56;21662;-74
2022/07/04 02:47:40;;;;;;;12.75;7.30;;;17.90;72.80;;;;;;2373713;56;21059;-73
2022/07/04 02:50:09;;;;;;;8.60;6.62;;;17.90;72.90;;;;;;2374095;56;21569;-74
2022/07/04 02:52:36;;;;;;;9.88;7.00;;;17.90;73.00;;;;;;2373589;56;21412;-74
2022/07/04 02:55:05;;;;;;;12.27;8.27;;;17.90;73.00;;;;;;2374093;56;21031;-73
2022/07/04 02:57:32;;;;;;;11.15;7.57;;;17.90;73.00;;;;;;2373892;56;21074;-73
2022/07/04 03:00:00;;;;;;;12.45;8.13;;;17.90;73.00;;;;;;2373619;56;21541;-73
2022/07/04 03:02:27;;;;;;;13.90;8.25;;;17.90;73.10;;;;;;2374131;56;21127;-73
2022/07/04 03:04:55;;;;;;;11.73;8.43;;;17.90;73.10;;;;;;2374122;56;21027;-73
2022/07/04 03:07:22;;;;;;;12.07;8.50;;;17.80;73.10;;;;;;2373888;56;21604;-73
2022/07/04 03:09:50;;;;;;;12.43;8.80;;;17.80;73.20;;;;;;2373362;56;21545;-72
2022/07/04 03:12:17;;;;;;;11.63;8.20;;;17.80;73.20;;;;;;2374095;56;21103;-73
2022/07/04 03:14:45;;;;;;;11.43;8.10;;;17.80;73.40;;;;;;2373535;56;21043;-73
2022/07/04 03:17:12;;;;;;;15.07;8.90;;;17.80;73.30;;;;;;2626298;52;21054;-73
2022/07/04 03:19:39;;;;;;;16.25;10.20;;;17.80;73.20;;;;;;2374339;56;21158;-74
2022/07/04 03:22:07;;;;;;;14.40;9.07;;;17.80;73.20;;;;;;2374239;56;21051;-73
2022/07/04 03:24:34;;;;;;;14.20;8.70;;;17.70;74.10;;;;;;2374309;56;21107;-72
2022/07/04 03:27:02;;;;;;;12.98;8.65;;;17.80;73.60;;;;;;2373222;56;21057;-73
2022/07/04 03:29:29;;;;;;;16.23;9.65;;;17.70;73.60;;;;;;2372807;56;21054;-73
2022/07/04 03:31:57;;;;;;;14.27;9.30;;;17.70;73.70;;;;;;2374160;56;21398;-73
2022/07/04 03:34:25;;;;;;;12.50;7.40;;;17.70;73.80;;;;;;2374130;56;21042;-73
2022/07/04 03:36:52;;;;;;;15.95;8.98;;;17.60;73.90;;;;;;2373929;56;21047;-73
2022/07/04 03:39:20;;;;;;;14.40;8.73;;;17.60;74.00;;;;;;2374004;56;21122;-74
2022/07/04 03:41:47;;;;;;;15.48;9.73;;;17.60;74.00;;;;;;2373796;56;21106;-74
2022/07/04 03:44:15;;;;;;;14.50;9.40;;;17.60;74.10;;;;;;2373706;56;21098;-73
2022/07/04 03:46:42;;;;;;;15.82;9.15;;;17.60;74.30;;;;;;2373854;56;21182;-73
2022/07/04 03:49:10;;;;;;;16.10;9.68;;;17.60;74.80;;;;;;2373300;56;21122;-73
2022/07/04 03:51:37;;;;;;;14.90;8.50;;;17.60;74.60;;;;;;2374013;56;21126;-74
2022/07/04 03:54:05;;;;;;;13.50;8.40;;;17.60;74.50;;;;;;2373689;56;21063;-73
2022/07/04 03:56:32;;;;;;;18.87;11.27;;;17.60;74.60;;;;;;2373887;56;21058;-74
2022/07/04 03:59:00;;;;;;;17.30;9.18;;;17.60;74.60;;;;;;2372613;56;21123;-74
2022/07/04 04:01:29;;;;;;;11.77;8.57;;;17.50;74.50;;;;;;2373290;56;21522;-73
2022/07/04 04:06:42;;;;;;;13.05;8.80;;;17.60;74.50;;;;;;2373389;56;21042;-73
2022/07/04 04:09:16;;;;;;;13.90;9.00;;;17.60;74.30;;;;;;2373678;56;21110;-73
2022/07/04 04:11:43;;;;;;;12.80;8.95;;;17.60;74.40;;;;;;2373695;56;21027;-72
2022/07/04 04:14:11;;;;;;;13.62;8.98;;;17.60;74.30;;;;;;2372400;56;21103;-73
2022/07/04 04:16:39;;;;;;;12.30;8.38;;;17.60;74.50;;;;;;2435856;53;21048;-73
2022/07/04 04:19:06;;;;;;;11.45;7.85;;;17.60;74.60;;;;;;2309314;58;21076;-73
2022/07/04 04:21:34;;;;;;;15.35;9.23;;;17.60;75.20;;;;;;2287643;59;21063;-73
2022/07/04 04:24:01;;;;;;;14.98;8.35;;;17.60;74.40;;;;;;2521095;55;21081;-73
2022/07/04 04:26:29;;;;;;;12.32;7.32;;;17.60;74.20;;;;;;2286162;59;21122;-73
2022/07/04 04:28:56;;;;;;;13.43;8.20;;;17.60;74.10;;;;;;2286721;59;21620;-73
2022/07/04 04:31:24;;;;;;;12.40;7.00;;;17.60;74.40;;;;;;2286656;59;21604;-74
2022/07/04 04:33:51;;;;;;;10.70;8.02;;;17.70;74.70;;;;;;2287467;59;21059;-73
2022/07/04 04:36:19;;;;;;;13.50;7.18;;;17.60;74.60;;;;;;2286967;59;21715;-73
2022/07/04 04:38:46;;;;;;;13.02;7.43;;;17.60;74.90;;;;;;2287506;59;21142;-73
2022/07/04 04:41:14;;;;;;;14.82;7.72;;;17.60;74.90;;;;;;2285968;59;21545;-73
2022/07/04 04:43:41;;;;;;;15.57;6.93;;;17.60;74.90;;;;;;2285954;59;21157;-73
2022/07/04 04:46:09;;;;;;;9.00;6.65;;;17.60;74.90;;;;;;2285554;59;21054;-73
2022/07/04 04:48:36;;;;;;;10.27;6.43;;;17.60;74.90;;;;;;2285515;59;21625;-73
2022/07/04 04:51:04;;;;;;;14.40;5.60;;;17.60;75.00;;;;;;2285070;59;21086;-73
2022/07/04 04:53:31;;;;;;;10.38;5.90;;;17.70;74.80;;;;;;2284955;59;21576;-73
2022/07/04 04:55:59;;;;;;;9.07;5.62;;;17.70;74.80;;;;;;2285027;59;21138;-73
2022/07/04 04:58:27;;;;;;;10.73;4.97;;;17.70;74.90;;;;;;2285579;59;21130;-73
2022/07/04 05:00:54;;;;;;;5.62;4.00;;;17.70;74.80;;;;;;2286114;59;21082;-73
2022/07/04 05:03:22;;;;;;;6.03;3.90;;;17.70;74.80;;;;;;2285713;59;21126;-73
2022/07/04 05:05:49;;;;;;;5.18;3.60;;;17.70;74.80;;;;;;2285730;59;21557;-73
2022/07/04 05:08:16;;;;;;;6.87;4.45;;;17.80;74.60;;;;;;2286608;59;21632;-73
2022/07/04 05:10:44;;;;;;;6.00;4.15;;;17.80;74.60;;;;;;2286723;59;21055;-73
2022/07/04 05:13:11;;;;;;;7.03;3.80;;;17.80;74.50;;;;;;2285881;59;21078;-73
2022/07/04 05:15:39;;;;;;;6.32;4.07;;;17.80;74.30;;;;;;2285797;59;21233;-73
2022/07/04 05:18:06;;;;;;;7.95;4.55;;;17.80;74.10;;;;;;2286220;59;21672;-73
2022/07/04 05:20:34;;;;;;;5.57;3.90;;;17.90;74.20;;;;;;2285698;59;21110;-75
2022/07/04 05:23:02;;;;;;;9.23;4.20;;;17.90;74.20;;;;;;2286267;59;21632;-73
2022/07/04 05:25:29;;;;;;;9.68;3.87;;;17.90;74.20;;;;;;2285052;59;21059;-73
2022/07/04 05:27:56;;;;;;;7.82;3.72;;;17.90;74.10;;;;;;2521022;55;21066;-73
2022/07/04 05:30:24;;;;;;;8.00;3.37;;;17.90;74.00;;;;;;2287387;59;21071;-73
2022/07/04 05:32:51;;;;;;;4.62;3.08;;;17.90;74.10;;;;;;2287666;59;21126;-73
2022/07/04 05:35:19;;;;;;;7.20;3.40;;;17.90;73.80;;;;;;2285396;59;21105;-73
2022/07/04 05:37:46;;;;;;;11.90;4.22;;;17.90;73.70;;;;;;2521470;55;21051;-73
2022/07/04 05:40:14;;;;;;;6.05;3.15;;;18.00;73.70;;;;;;2287107;59;21474;-73
2022/07/04 05:42:42;;;;;;;7.97;3.25;;;18.00;73.60;;;;;;2287291;59;21192;-73
2022/07/04 05:45:10;;;;;;;4.93;2.72;;;18.00;73.70;;;;;;2521530;55;21142;-73
2022/07/04 05:47:38;;;;;;;6.68;2.83;;;18.00;73.80;;;;;;2287295;59;21071;-73
2022/07/04 05:50:07;;;;;;;8.23;2.87;;;18.10;73.70;;;;;;2287412;59;21078;-73
2022/07/04 05:52:35;;;;;;;5.03;3.28;;;18.00;73.50;;;;;;2287261;59;21062;-73
2022/07/04 05:55:03;;;;;;;5.93;2.42;;;18.00;73.50;;;;;;2287277;59;21074;-73
2022/07/04 05:57:30;;;;;;;3.78;2.50;;;18.10;73.60;;;;;;2286424;59;21613;-73
2022/07/04 05:59:58;;;;;;;6.43;2.72;;;18.10;73.30;;;;;;2521983;54;21197;-73
2022/07/04 06:02:25;;;;;;;4.50;2.12;;;18.20;73.50;;;;;;2287674;59;21608;-73
2022/07/04 06:04:53;;;;;;;5.43;2.60;;;18.20;73.20;;;;;;2287475;59;21154;-73
2022/07/04 06:07:20;;;;;;;4.35;2.35;;;18.20;72.90;;;;;;2287221;59;21054;-73
2022/07/04 06:09:47;;;;;;;6.10;2.08;;;18.20;72.60;;;;;;2287633;59;21608;-73
2022/07/04 06:14:50;;;;;;;5.17;2.20;;;18.30;72.80;;;;;;2336322;57;27760;-72
2022/07/04 06:17:18;;;;;;;3.10;1.85;;;18.30;71.60;;;;;;2347008;57;21056;-72
2022/07/04 06:19:45;;;;;;;3.37;1.77;;;18.40;71.20;;;;;;2358592;56;21141;-72
2022/07/04 06:22:13;;;;;;;3.72;2.00;;;18.50;70.50;;;;;;2374896;56;21166;-72
2022/07/04 06:24:40;;;;;;;4.40;1.60;;;18.70;69.60;;;;;;2375044;56;21549;-72
2022/07/04 06:27:08;;;;;;;4.40;1.98;;;18.70;69.30;;;;;;2374233;56;21047;-72
2022/07/04 06:29:35;;;;;;;4.35;1.55;;;18.70;69.20;;;;;;2628509;52;21094;-72
2022/07/04 06:32:03;;;;;;;2.97;1.45;;;18.70;69.10;;;;;;2374647;56;21572;-71
2022/07/04 06:37:17;;;;;;;3.00;1.62;;;18.80;68.70;;;;;;2374798;56;21007;-73
2022/07/04 06:39:45;;;;;;;2.17;1.00;;;18.90;68.10;;;;;;2375403;56;21121;-73
2022/07/04 06:42:12;;;;;;;2.70;1.12;;;19.00;67.70;;;;;;2375002;56;21107;-73
2022/07/04 06:44:40;;;;;;;3.33;1.17;;;19.00;66.20;;;;;;2375316;56;21118;-73
2022/07/04 06:47:07;;;;;;;4.45;1.17;;;19.10;65.50;;;;;;2374873;56;21058;-73
2022/07/04 06:49:35;;;;;;;3.25;1.10;;;19.10;65.60;;;;;;2375556;56;21047;-73
2022/07/04 06:52:03;;;;;;;2.83;1.10;;;19.10;64.90;;;;;;2374547;56;21222;-72
2022/07/04 06:54:30;;;;;;;2.45;1.00;;;19.10;64.70;;;;;;2375031;56;21098;-73
2022/07/04 06:56:58;;;;;;;6.10;1.02;;;19.20;64.70;;;;;;2373984;56;21553;-73
2022/07/04 06:59:26;;;;;;;2.87;1.15;;;19.20;64.80;;;;;;2375137;56;21133;-73
2022/07/04 07:01:53;;;;;;;6.05;2.12;;;19.30;64.10;;;;;;2375099;56;21545;-73
2022/07/04 07:04:21;;;;;;;4.60;1.37;;;19.30;63.80;;;;;;2375125;56;21102;-73
2022/07/04 07:06:48;;;;;;;1.90;1.05;;;19.30;63.40;;;;;;2374754;56;21055;-73
2022/07/04 07:09:16;;;;;;;1.87;1.15;;;19.30;63.40;;;;;;2628746;52;21063;-73
2022/07/04 07:11:43;;;;;;;4.70;1.20;;;19.30;61.90;;;;;;2374410;56;22254;-73
2022/07/04 07:14:10;;;;;;;4.05;0.90;;;19.30;62.00;;;;;;2374808;56;21313;-73
2022/07/04 07:16:38;;;;;;;7.22;1.58;;;19.40;62.60;;;;;;2374793;56;21102;-73
2022/07/04 07:19:05;;;;;;;2.92;1.33;;;19.50;62.70;;;;;;2375428;56;21114;-73
2022/07/04 07:21:33;;;;;;;4.82;1.10;;;19.50;61.80;;;;;;2375120;56;21621;-73
2022/07/04 07:24:00;;;;;;;2.55;1.20;;;19.50;61.20;;;;;;2375128;56;21640;-73
2022/07/04 07:26:28;;;;;;;6.95;1.25;;;19.50;61.10;;;;;;2373236;56;21182;-73
2022/07/04 07:28:55;;;;;;;2.80;1.30;;;19.60;60.70;;;;;;2374136;56;21344;-73
2022/07/04 07:31:23;;;;;;;2.45;1.10;;;19.60;60.70;;;;;;2374177;56;21098;-73
2022/07/04 07:33:50;;;;;;;3.60;1.02;;;19.60;61.70;;;;;;2625890;52;21620;-73
2022/07/04 07:36:18;;;;;;;3.97;1.10;;;19.60;61.30;;;;;;2373626;56;22250;-73
2022/07/04 07:38:45;;;;;;;3.97;1.30;;;19.70;60.50;;;;;;2374432;56;21035;-73
2022/07/04 07:41:13;;;;;;;3.00;1.30;;;19.70;60.70;;;;;;2373585;56;21055;-73
2022/07/04 07:43:41;;;;;;;2.12;1.02;;;19.70;60.30;;;;;;2374300;56;21035;-73
2022/07/04 07:46:09;;;;;;;3.10;1.10;;;19.70;60.00;;;;;;2373818;56;21110;-73
2022/07/04 07:48:36;;;;;;;2.10;1.27;;;19.80;60.00;;;;;;2374010;56;22182;-73
2022/07/04 07:51:04;;;;;;;4.28;1.33;;;19.80;59.50;;;;;;2627762;52;21107;-73
2022/07/04 07:53:31;;;;;;;3.17;1.37;;;19.80;59.60;;;;;;2373822;56;21035;-73
2022/07/04 07:55:59;;;;;;;2.92;1.27;;;19.90;60.00;;;;;;2373426;56;21114;-73
2022/07/04 07:58:26;;;;;;;2.62;1.25;;;19.90;59.60;;;;;;2374327;56;21182;-73
2022/07/04 08:00:54;;;;;;;5.90;1.77;;;19.90;59.40;;;;;;2374344;56;21604;-73
2022/07/04 08:06:07;;;;;;;2.33;1.10;;;19.90;59.40;;;;;;2373981;56;21019;-72
2022/07/04 08:08:34;;;;;;;3.50;1.20;;;20.00;59.60;;;;;;2374273;56;21637;-73
2022/07/04 08:11:02;;;;;;;2.22;1.35;;;20.10;60.20;;;;;;2372723;56;21090;-72
2022/07/04 08:13:29;;;;;;;3.12;1.17;;;20.10;59.80;;;;;;2374255;56;21553;-73
2022/07/04 08:15:57;;;;;;;2.72;1.00;;;20.10;59.40;;;;;;2373575;56;21051;-72
2022/07/04 08:18:25;;;;;;;3.78;0.95;;;20.10;59.10;;;;;;2374114;56;21620;-72
2022/07/04 08:20:53;;;;;;;11.10;2.22;;;20.20;59.20;;;;;;2374051;56;21042;-72
2022/07/04 08:23:20;;;;;;;2.45;1.30;;;20.20;59.20;;;;;;2372551;56;21066;-72
2022/07/04 08:25:48;;;;;;;3.65;1.55;;;20.20;59.60;;;;;;2373645;56;21047;-72
2022/07/04 08:28:15;;;;;;;2.42;1.20;;;20.30;60.00;;;;;;2374025;56;21114;-72
2022/07/04 08:30:43;;;;;;;2.10;1.00;;;20.40;59.50;;;;;;2374402;56;21099;-72
2022/07/04 08:33:10;;;;;;;5.15;1.40;;;20.50;58.80;;;;;;2373546;56;21055;-72
2022/07/04 08:35:38;;;;;;;2.65;1.35;;;20.60;58.90;;;;;;2373709;56;21197;-73
2022/07/04 08:38:05;;;;;;;3.92;1.10;;;20.60;58.40;;;;;;2374193;56;21043;-73
2022/07/04 08:40:33;;;;;;;2.83;1.23;;;20.60;58.40;;;;;;2373213;56;21043;-72
2022/07/04 08:43:03;;;;;;;3.25;1.37;;;20.70;57.80;;;;;;2373929;56;21122;-72
2022/07/04 08:45:33;;;;;;;3.30;1.00;;;20.60;57.50;;;;;;2626874;52;21133;-72
2022/07/04 08:48:02;;;;;;;2.15;1.15;;;20.60;57.80;;;;;;2373731;56;21647;-72
2022/07/04 08:50:32;;;;;;;3.00;1.20;;;20.60;57.50;;;;;;2374353;56;21114;-73
2022/07/04 08:53:06;;;;;;;3.53;1.02;;;20.60;57.50;;;;;;2374076;56;21110;-72
2022/07/04 08:58:29;;;;;;;3.20;1.60;;;20.70;57.20;;;;;;2373789;56;20987;-72
2022/07/04 09:00:57;;;;;;;1.77;0.68;;;20.80;57.00;;;;;;2374329;56;21035;-72
2022/07/04 09:03:26;;;;;;;1.70;1.00;;;20.80;56.20;;;;;;2373588;56;21601;-72
2022/07/04 09:05:54;;;;;;;2.45;1.02;;;20.80;56.20;;;;;;2373752;56;21541;-72
2022/07/04 09:08:22;;;;;;;2.97;1.00;;;20.80;55.20;;;;;;2373853;56;21122;-72
2022/07/04 09:10:50;;;;;;;1.85;0.80;;;20.80;55.10;;;;;;2373813;56;21687;-72
2022/07/04 09:13:18;;;;;;;2.62;0.85;;;20.90;55.20;;;;;;2374041;56;21067;-72
2022/07/04 09:15:48;;;;;;;0.75;0.70;;;20.90;55.30;;;;;;2373480;56;21660;-72
2022/07/04 09:18:23;;;;;;;2.92;1.10;;;21.00;54.70;;;;;;2374236;56;21553;-72
2022/07/04 09:20:51;;;;;;;1.55;0.70;;;21.10;55.00;;;;;;2374283;56;21114;-72
2022/07/04 09:23:21;;;;;;;3.00;1.00;;;21.10;54.90;;;;;;2373606;56;21119;-72
2022/07/04 09:25:49;;;;;;;3.80;0.90;;;21.20;55.10;;;;;;2374039;56;21114;-72
2022/07/04 09:28:28;;;;;;;3.08;0.70;;;21.20;54.40;;;;;;2374039;56;21031;-72
2022/07/04 09:30:56;;;;;;;3.30;1.08;;;21.30;54.00;;;;;;2373260;56;21557;-72
2022/07/04 09:33:43;;;;;;;1.52;0.88;;;21.30;54.40;;;;;;2374092;56;21039;-72
2022/07/04 09:36:13;;;;;;;2.67;0.88;;;21.40;54.70;;;;;;2373262;56;21621;-72
2022/07/04 09:38:41;;;;;;;1.73;0.90;;;21.50;54.70;;;;;;2373675;56;21514;-72
2022/07/04 09:41:29;;;;;;;1.70;0.90;;;21.60;54.30;;;;;;2373642;56;21090;-72
2022/07/04 09:44:04;;;;;;;2.55;0.77;;;21.70;53.70;;;;;;2374174;56;21027;-72
2022/07/04 09:46:33;;;;;;;2.28;0.80;;;21.70;53.50;;;;;;2373703;56;21055;-72
2022/07/04 09:49:01;;;;;;;1.52;0.85;;;21.70;53.80;;;;;;2372175;56;21561;-72
2022/07/04 09:51:40;;;;;;;4.43;1.02;;;21.80;54.20;;;;;;2373841;56;21154;-72
2022/07/04 09:54:25;;;;;;;2.15;0.73;;;21.80;52.20;;;;;;2374173;56;21039;-72
2022/07/04 09:56:54;;;;;;;1.45;0.77;;;21.90;52.40;;;;;;2374007;56;21114;-72
2022/07/04 09:59:22;;;;;;;0.90;0.70;;;21.90;52.70;;;;;;2373896;56;21631;-72
2022/07/04 10:01:50;;;;;;;1.92;0.70;;;22.00;52.70;;;;;;2374187;56;21548;-73
2022/07/04 10:04:21;;;;;;;3.12;1.00;;;22.10;52.70;;;;;;2373917;56;21569;-72
2022/07/04 10:06:48;;;;;;;2.42;0.93;;;22.20;52.60;;;;;;2373945;56;21095;-72
2022/07/04 10:09:18;;;;;;;3.22;0.80;;;22.20;52.70;;;;;;2373945;56;21082;-72
2022/07/04 10:11:47;;;;;;;2.30;0.82;;;22.30;52.90;;;;;;2374192;56;21110;-72
2022/07/04 10:14:16;;;;;;;1.12;0.70;;;22.40;52.50;;;;;;2373763;56;21058;-73
2022/07/04 10:16:44;;;;;;;3.67;0.93;;;22.40;52.90;;;;;;2373439;56;21051;-72
2022/07/04 10:19:12;;;;;;;1.92;0.70;;;22.50;52.60;;;;;;2443207;54;21114;-76
2022/07/04 10:21:40;;;;;;;2.25;0.82;;;22.60;51.90;;;;;;2301200;58;21055;-75
2022/07/04 10:24:08;;;;;;;2.45;1.17;;;22.60;50.90;;;;;;2301443;58;21070;-75
2022/07/04 10:26:36;;;;;;;3.55;0.90;;;22.60;51.50;;;;;;2301098;58;21090;-76
2022/07/04 10:29:04;;;;;;;2.20;0.85;;;22.70;51.10;;;;;;2300753;58;21487;-76
2022/07/04 10:31:33;;;;;;;2.12;0.80;;;22.70;50.50;;;;;;2301186;58;21067;-76
2022/07/04 10:34:03;;;;;;;3.22;0.80;;;22.80;50.50;;;;;;2301224;58;21692;-76
2022/07/04 10:36:31;;;;;;;2.80;1.00;;;22.80;50.70;;;;;;2301337;58;21055;-76
2022/07/04 10:39:00;;;;;;;2.45;1.02;;;22.90;51.10;;;;;;2301294;58;21039;-76
2022/07/04 10:41:30;;;;;;;2.65;0.90;;;22.90;50.90;;;;;;2301429;58;21050;-76
2022/07/04 10:44:07;;;;;;;2.17;0.50;;;22.90;50.50;;;;;;2300958;58;21710;-75
2022/07/04 10:46:44;;;;;;;3.35;1.02;;;23.00;50.60;;;;;;2300276;58;21055;-76
2022/07/04 10:49:20;;;;;;;2.80;0.93;;;22.90;50.50;;;;;;2537848;54;21566;-76
2022/07/04 10:51:50;;;;;;;1.55;0.80;;;22.90;50.70;;;;;;2301383;58;21561;-76
2022/07/04 10:54:19;;;;;;;1.17;0.85;;;22.90;49.90;;;;;;2301519;58;21054;-76
2022/07/04 10:56:54;;;;;;;1.62;0.90;;;22.90;49.90;;;;;;2301246;58;21046;-76
2022/07/04 10:59:25;;;;;;;3.75;0.73;;;22.80;49.60;;;;;;2301499;58;21118;-76
2022/07/04 11:08:03;;;;;;;2.92;0.70;;;22.80;49.80;;;;;;2355831;57;22046;-75
2022/07/04 11:10:33;;;;;;;0.93;0.50;;;22.80;50.20;;;;;;2367114;56;21126;-75
2022/07/04 11:13:18;;;;;;;0.95;0.70;;;22.90;50.50;;;;;;2375428;56;21078;-75
2022/07/04 11:16:06;;;;;;;1.65;1.00;;;23.00;50.90;;;;;;2374621;56;21541;-75
2022/07/04 11:18:44;;;;;;;1.40;0.73;;;23.10;51.00;;;;;;2374458;56;21308;-75
2022/07/04 11:21:22;;;;;;;3.47;1.00;;;23.10;50.10;;;;;;2375032;56;21090;-76
2022/07/04 11:23:54;;;;;;;2.40;0.70;;;23.10;49.90;;;;;;2374195;56;21537;-76
2022/07/04 11:26:23;;;;;;;2.83;0.75;;;23.10;49.30;;;;;;2374542;56;21585;-76
2022/07/04 11:28:50;;;;;;;2.22;0.90;;;23.20;49.00;;;;;;2627766;52;21537;-76
2022/07/04 11:31:18;;;;;;;0.90;0.50;;;23.10;48.70;;;;;;2375035;56;21090;-75
2022/07/04 11:33:46;;;;;;;1.40;0.60;;;23.10;48.50;;;;;;2374936;56;21525;-76
2022/07/04 11:36:16;;;;;;;0.93;0.60;;;23.10;48.60;;;;;;2374649;56;21027;-76
2022/07/04 11:38:55;;;;;;;1.02;0.50;;;23.10;48.70;;;;;;2629037;52;21039;-76
2022/07/04 11:47:09;;;;;;;3.12;0.85;;;23.50;49.90;;;;;;2374224;56;21664;-76
2022/07/04 11:49:40;;;;;;;2.05;0.70;;;23.50;48.30;;;;;;2374963;56;21107;-76
2022/07/04 11:52:08;;;;;;;1.42;0.52;;;23.50;48.60;;;;;;2375008;56;21101;-76
2022/07/04 11:54:36;;;;;;;1.83;0.75;;;23.50;48.00;;;;;;2375176;56;21679;-76
2022/07/04 11:57:12;;;;;;;2.83;0.50;;;23.50;47.70;;;;;;2373207;56;21094;-76
2022/07/04 11:59:39;;;;;;;1.23;0.73;;;23.50;47.80;;;;;;2375256;56;21019;-76
2022/07/04 12:02:15;;;;;;;3.08;0.75;;;23.50;48.00;;;;;;2375122;56;21039;-75
2022/07/04 12:04:43;;;;;;;1.58;0.77;;;23.50;48.00;;;;;;2628222;52;21091;-76
2022/07/04 12:07:13;;;;;;;0.65;0.62;;;23.50;48.00;;;;;;2374628;56;21054;-76
2022/07/04 12:09:41;;;;;;;2.83;0.80;;;23.50;48.60;;;;;;2375143;56;21031;-75
2022/07/04 12:12:11;;;;;;;0.93;0.50;;;23.60;48.80;;;;;;2374495;56;21575;-76
2022/07/04 12:14:38;;;;;;;2.00;0.95;;;23.60;48.60;;;;;;2375119;56;21142;-75
2022/07/04 12:17:17;;;;;;;0.85;0.50;;;23.70;47.90;;;;;;2374035;56;21154;-75
2022/07/04 12:19:55;;;;;;;1.80;0.90;;;23.90;48.30;;;;;;2374145;56;21310;-76
2022/07/04 12:22:35;;;;;;;0.95;0.60;;;24.00;48.20;;;;;;2373704;56;21051;-76
2022/07/04 12:25:06;;;;;;;0.85;0.47;;;24.20;47.30;;;;;;2374198;56;21107;-75
2022/07/04 12:27:35;;;;;;;1.70;0.77;;;24.20;46.70;;;;;;2373019;56;21046;-76
2022/07/04 12:30:05;;;;;;;1.42;0.57;;;24.20;46.50;;;;;;2373997;56;21118;-75
2022/07/04 12:32:48;;;;;;;0.68;0.60;;;24.20;47.00;;;;;;2625963;52;21652;-76
2022/07/04 12:38:36;;;;;;;1.90;0.47;;;24.30;47.10;;;;;;2355890;57;22125;-75
2022/07/04 12:41:07;;;;;;;1.40;0.70;;;24.40;46.90;;;;;;2373134;56;21060;-75
2022/07/04 12:43:50;;;;;;;0.82;0.70;;;24.50;46.80;;;;;;2374909;56;21110;-75
2022/07/04 12:46:28;;;;;;;1.23;0.80;;;24.50;46.70;;;;;;2374405;56;21113;-75
2022/07/04 12:48:57;;;;;;;2.03;0.60;;;24.60;47.10;;;;;;2374176;56;21035;-75
2022/07/04 12:51:26;;;;;;;2.00;0.90;;;24.80;47.10;;;;;;2374990;56;21141;-75
2022/07/04 12:53:55;;;;;;;3.17;1.00;;;24.90;46.60;;;;;;2375192;56;21106;-75
2022/07/04 12:56:31;;;;;;;2.42;1.20;;;24.90;45.60;;;;;;2374677;56;21130;-75
2022/07/04 12:59:00;;;;;;;1.40;0.88;;;24.90;45.20;;;;;;2626783;52;21082;-75
2022/07/04 13:04:04;;;;;;;2.60;1.00;;;24.90;44.90;;;;;;2327920;57;22158;-75
2022/07/04 13:06:32;;;;;;;3.90;0.80;;;24.80;43.50;;;;;;2346917;57;21037;-75
2022/07/04 13:09:02;;;;;;;1.20;0.50;;;24.80;44.80;;;;;;2347094;57;21092;-75
2022/07/04 13:14:15;;;;;;;3.40;0.90;;;24.80;45.00;;;;;;2345943;57;21058;-75
2022/07/04 13:16:43;;;;;;;1.45;0.60;;;24.70;45.10;;;;;;2345146;57;21125;-75
2022/07/04 13:19:10;;;;;;;3.12;0.90;;;24.80;45.50;;;;;;2345898;57;21090;-75
2022/07/04 13:21:38;;;;;;;1.25;0.80;;;25.00;45.60;;;;;;2345649;57;21090;-75
2022/07/04 13:24:07;;;;;;;1.58;0.80;;;25.20;44.80;;;;;;2345905;57;21037;-75
2022/07/04 13:26:36;;;;;;;3.90;0.85;;;25.30;45.10;;;;;;2345793;57;21077;-75
2022/07/04 13:29:04;;;;;;;2.50;0.80;;;25.40;45.50;;;;;;2345928;57;21134;-75
2022/07/04 13:31:31;;;;;;;4.57;0.90;;;25.40;43.00;;;;;;2345414;57;21517;-75
2022/07/04 13:33:59;;;;;;;1.67;0.82;;;25.50;43.30;;;;;;2592644;53;21034;-75